EKRK/RKE METAR and TAF weather

Enter ICAO airport designator
Station Type Date Time Source
EKRK METAR 2020/07/05 16:20 UTC NOAA

EKRK 051620Z AUTO 26021G37KT 9999 BKN042/// 19/10 Q1002


Station Type Date Time Source
EKRK Decoded METAR 2020/07/05 16:20 UTC NOAA

Koebenhavn / Roskilde, Denmark (EKRK) 55-35N 012-08E 44M
Jul 05, 2020 - 12:20 PM EDT / 2020.07.05 1620 UTC
Wind: from the W (260 degrees) at 24 MPH (21 KT) gusting to 43 MPH (37 KT):0
Visibility: greater than 7 mile(s):0
Sky conditions: mostly cloudy
Temperature: 66 F (19 C)
Dew Point: 50 F (10 C)
Relative Humidity: 55%
Pressure (altimeter): 29.59 in. Hg (1002 hPa)
ob: EKRK 051620Z AUTO 26021G37KT 9999 BKN042/// 19/10 Q1002
cycle: 16

Station Type Date Time Source
EKRK TAF UTC NOAA

Error!

Example: see airport list